John P. Tully — CG2958 — position and weather

sailwx.info

Track history (hours):
 
Tides and Currents Weather Stations Pressure Air Temp Water Temp Dewpoint Dewpoint Depression Visibility Wind Speed Wind Dir Waves Ship Positions

Oceanographic research ship John P. Tully (Canada)

Detailed information on ship capabilities available from University of Delaware's Ocean Information Center.

Last reported at 2018-Jun-23 20:05 UTC. Time now 2018-Jun-23 23:19 UTC.
Position N 50°32' W 126°15'.

Length 68.9 m; beam 14.5 m; draft 4.5 m.

Type: SAR. MMSI: 316114000.

Date/timePositionNaut miles runAvg speedWind from/ knotsBaromVisibWave heightAir tempDewpointWater temp
2018-Jun-23 20:05N 50°32' W 126°15'1 7.8
2018-Jun-23 19:54N 50°32' W 126°17'22 0.9
2018-Jun-22 18:23N 50°22' W 125°45'1 0.3
2018-Jun-22 15:33N 50°22' W 125°44'12 6.1
2018-Jun-22 13:41N 50°21' W 125°26'210.5
2018-Jun-22 13:29N 50°22' W 125°24'510.0
2018-Jun-22 12:58N 50°26' W 125°19'3 5.6
2018-Jun-22 12:29N 50°28' W 125°17'2 0.2
2018-Jun-22 03:40N 50°30' W 125°15'1 6.0
2018-Jun-22 03:28N 50°29' W 125°16'13223.0
2018-Jun-21 21:42N 48°21' W 126°08'2 9.3
2018-Jun-21 21:29N 48°21' W 126°05'121207.5
2018-Jun-21 20:54N 50°20' W 125°26'118303.7
2018-Jun-21 20:31N 48°24' W 125°51'1143652.7
2018-Jun-21 20:29N 50°16' W 125°24'1132599.4
2018-Jun-21 20:26N 48°24' W 125°50'110246.2
2018-Jun-21 19:59N 50°13' W 125°22'1083614.5
2018-Jun-21 19:58N 48°25' W 125°43'104227.1
2018-Jun-21 19:30N 50°08' W 125°21'1025343.1
2018-Jun-21 19:29N 48°26' W 125°36'100209.2
2018-Jun-21 19:00N 50°06' W 125°17'973917.7
2018-Jun-21 18:59N 48°29' W 125°30'94190.5
2018-Jun-21 18:29N 50°03' W 125°14'9219419.6
2018-Jun-21 18:29N 48°31' W 125°23'89187.8
2018-Jun-21 18:00N 49°60' W 125°13'89482.7
2018-Jun-21 17:49N 48°31' W 125°14'3 9.1
2018-Jun-21 17:30N 48°31' W 125°10'86310291.2
2018-Jun-21 17:30N 49°58' W 125°09'86170.6
2018-Jun-21 17:00N 48°31' W 125°03'8310700.6
2018-Jun-21 17:00N 49°55' W 125°05'4 8.2
2018-Jun-21 16:30N 49°52' W 125°00'814755.6
2018-Jun-21 16:29N 48°31' W 124°56'4 9.2
2018-Jun-21 16:00N 48°31' W 124°49'7825456.0
2018-Jun-21 16:00N 49°49' W 124°56'4 8.3
2018-Jun-21 15:30N 49°46' W 124°51'7630286.6
2018-Jun-21 15:30N 48°31' W 124°42'73146.2
2018-Jun-21 15:00N 49°43' W 124°47'7529997.7
2018-Jun-21 15:00N 48°29' W 124°35'5 9.7
2018-Jun-21 14:30N 48°27' W 124°28'4 8.5
2018-Jun-21 14:01N 48°25' W 124°23'510.2
2018-Jun-21 13:30N 48°23' W 124°16'7326135.5
2018-Jun-21 13:30N 49°35' W 124°33'75148.9
2018-Jun-21 13:00N 48°21' W 124°08'721074.8
2018-Jun-21 12:56N 49°32' W 124°28'74170.7
2018-Jun-21 12:30N 48°19' W 124°01'1010.1
2018-Jun-21 11:29N 48°17' W 123°46'16 8.8
2018-Jun-21 09:42N 48°23' W 123°24'210.0
2018-Jun-21 09:29N 48°23' W 123°21'510.5
2018-Jun-21 09:00N 48°24' W 123°14'5 9.4
2018-Jun-21 08:30N 48°29' W 123°13'44145.2
2018-Jun-21 08:12N 49°10' W 123°36'39191.5
2018-Jun-21 08:00N 48°34' W 123°13'3766401.5
2018-Jun-21 08:00N 49°08' W 123°34'3265.6
2018-Jun-21 07:30N 48°38' W 123°15'27211.4
2018-Jun-21 07:23N 49°04' W 123°28'2258.5
2018-Jun-21 07:00N 48°43' W 123°16'191133.8
2018-Jun-21 06:59N 49°02' W 123°24'1735.7
2018-Jun-21 06:30N 48°45' W 123°23'5 9.5
2018-Jun-21 06:00N 48°42' W 123°29'1678.0
2018-Jun-21 05:48N 48°54' W 123°13'1862.4
2018-Jun-21 05:30N 48°39' W 123°30'1832517.4
2018-Jun-21 05:30N 48°53' W 123°11'1835.7
2018-Jun-21 05:00N 48°39' W 123°29'2 3.1
2018-Jun-21 04:30N 48°39' W 123°27'1885.0
2018-Jun-21 04:18N 48°46' W 123°02'1852.5
2018-Jun-21 03:57N 48°39' W 123°27'1133.0
2018-Jun-21 03:38N 48°43' W 123°12'110.7
2018-Jun-21 03:31N 48°43' W 123°14'10187.0
2018-Jun-21 03:27N 48°39' W 123°27'714.2
2018-Jun-21 03:00N 48°45' W 123°21'774.8
2018-Jun-21 02:54N 48°39' W 123°27'3 8.2
2018-Jun-21 02:30N 48°43' W 123°28'311.7
2018-Jun-21 02:12N 48°39' W 123°27'2 8.7
2018-Jun-21 02:01N 48°40' W 123°30'21562.6
2018-Jun-21 02:00N 48°39' W 123°27'0 0.0
2018-Jun-21 01:30N 48°39' W 123°27'0 1.3
2018-Jun-21 01:28N 48°39' W 123°27'0 0.0
2018-Jun-21 00:40N 48°39' W 123°27'0 0.1
2018-Jun-20 23:49N 48°39' W 123°27'0 0.0
2018-Jun-20 22:34N 48°39' W 123°27'0 0.0
2018-Jun-20 22:28N 48°39' W 123°27'0 0.5
2018-Jun-20 22:21N 48°39' W 123°27'0 0.1
2018-Jun-20 21:58N 48°39' W 123°27'0 0.2
2018-Jun-20 21:42N 48°39' W 123°27'0 0.0
2018-Jun-20 21:27N 48°39' W 123°27'0 1.3
2018-Jun-20 21:25N 48°39' W 123°27'0 0.1
2018-Jun-20 21:00N 48°39' W 123°27'0 1.3
2018-Jun-20 20:58N 48°39' W 123°27'0 0.0
2018-Jun-20 17:36N 48°39' W 123°27'0 0.0
2018-Jun-20 17:15N 48°39' W 123°27'0 0.0
2018-Jun-20 16:51N 48°39' W 123°27'0 0.0
2018-Jun-20 16:30N 48°39' W 123°27'0 0.0
2018-Jun-20 14:55N 48°39' W 123°27'0 1.1
2018-Jun-20 14:52N 48°39' W 123°27'0 0.0
2018-Jun-20 14:28N 48°39' W 123°27'0 0.2
2018-Jun-20 14:12N 48°39' W 123°27'0 0.0
2018-Jun-20 13:57N 48°39' W 123°27'0 1.3
2018-Jun-20 13:55N 48°39' W 123°27'0 0.0
2018-Jun-20 13:28N 48°39' W 123°27'0 6.4
2018-Jun-20 13:27N 48°39' W 123°27'0 0.1
2018-Jun-20 12:58N 48°39' W 123°27'0 6.9
2018-Jun-20 12:57N 48°39' W 123°27'0 0.0
2018-Jun-20 12:30N 48°39' W 123°27'0 0.6
2018-Jun-20 12:25N 48°39' W 123°27'0 0.1
2018-Jun-20 12:00N 48°39' W 123°27'0 1.3
2018-Jun-20 11:58N 48°39' W 123°27'0 0.1
2018-Jun-20 11:27N 48°39' W 123°27'0 1.3
2018-Jun-20 11:25N 48°39' W 123°27'0 0.1
2018-Jun-20 10:57N 48°39' W 123°27'0 1.3
2018-Jun-20 10:55N 48°39' W 123°27'0 0.0
2018-Jun-20 10:28N 48°39' W 123°27'0 6.6
2018-Jun-20 10:27N 48°39' W 123°27'0 0.1
2018-Jun-20 09:58N 48°39' W 123°27'0 6.9
2018-Jun-20 09:57N 48°39' W 123°27'0 0.0
2018-Jun-20 09:30N 48°39' W 123°27'0 0.6
2018-Jun-20 09:25N 48°39' W 123°27'0 0.1
2018-Jun-20 09:00N 48°39' W 123°27'0 0.6
2018-Jun-20 08:55N 48°39' W 123°27'0 0.1
2018-Jun-20 08:30N 48°39' W 123°27'0 0.2
2018-Jun-20 08:13N 48°39' W 123°27'0 0.0
2018-Jun-20 07:58N 48°39' W 123°27'012.9
2018-Jun-20 07:58N 48°39' W 123°27'0 0.0
2018-Jun-20 07:26N 48°39' W 123°27'0 0.8
2018-Jun-20 07:22N 48°39' W 123°27'0 0.1
2018-Jun-20 06:58N 48°39' W 123°27'0 1.0
2018-Jun-20 06:55N 48°39' W 123°27'0 0.1
2018-Jun-20 06:28N 48°39' W 123°27'038.6
2018-Jun-20 06:28N 48°39' W 123°27'0 0.1
2018-Jun-20 06:00N 48°39' W 123°27'0 0.7
2018-Jun-20 05:55N 48°39' W 123°27'0 0.1
2018-Jun-20 05:30N 48°39' W 123°27'0 0.7
2018-Jun-20 05:25N 48°39' W 123°27'0 0.1
2018-Jun-20 04:59N 48°39' W 123°27'0 0.5
2018-Jun-20 04:52N 48°39' W 123°27'0 0.0
2018-Jun-20 04:28N 48°39' W 123°27'0 1.4
2018-Jun-20 04:26N 48°39' W 123°27'0 0.0
2018-Jun-20 03:59N 48°39' W 123°27'0 0.3
2018-Jun-20 03:49N 48°39' W 123°27'0 0.2
2018-Jun-20 03:29N 48°39' W 123°27'0 0.8
2018-Jun-20 03:25N 48°39' W 123°27'0 0.0
2018-Jun-20 02:58N 48°39' W 123°27'0 1.4
2018-Jun-20 02:56N 48°39' W 123°27'0 0.1
2018-Jun-20 02:25N 48°39' W 123°27'0 0.4
2018-Jun-20 02:17N 48°39' W 123°27'0 0.1
2018-Jun-20 01:55N 48°39' W 123°27'0 0.0
2018-Jun-20 01:28N 48°39' W 123°27'0 0.6
2018-Jun-20 01:23N 48°39' W 123°27'0 0.0
2018-Jun-20 00:59N 48°39' W 123°27'0 4.2
2018-Jun-20 00:58N 48°39' W 123°27'0 0.1
2018-Jun-20 00:29N 48°39' W 123°27'0 0.3
2018-Jun-20 00:19N 48°39' W 123°27'0 0.0
2018-Jun-19 23:58N 48°39' W 123°27'0 0.2
2018-Jun-19 23:44N 48°39' W 123°27'0 0.1
2018-Jun-19 23:22N 48°39' W 123°27'0 0.2
2018-Jun-19 23:08N 48°39' W 123°27'0 0.3
2018-Jun-19 22:58N 48°39' W 123°27'0 0.6
2018-Jun-19 22:53N 48°39' W 123°27'0 0.0
2018-Jun-19 22:08N 48°39' W 123°27'0 0.0
2018-Jun-19 21:56N 48°39' W 123°27'0 0.2
2018-Jun-19 21:34N 48°39' W 123°27'0 0.1
2018-Jun-19 20:47N 48°39' W 123°27'0 0.5
2018-Jun-19 20:40N 48°39' W 123°27'0 0.3
2018-Jun-19 20:29N 48°39' W 123°27'0 4.3
2018-Jun-19 20:28N 48°39' W 123°27'0 0.1
2018-Jun-19 19:59N 48°39' W 123°27'0 0.1
2018-Jun-19 19:37N 48°39' W 123°27'0 0.0
2018-Jun-19 19:25N 48°39' W 123°27'0 1.4
2018-Jun-19 19:23N 48°39' W 123°27'0 0.0
2018-Jun-19 18:59N 48°39' W 123°27'0 0.1
2018-Jun-19 18:34N 48°39' W 123°27'0 0.0
2018-Jun-19 18:22N 48°39' W 123°27'0 0.6
2018-Jun-19 18:17N 48°39' W 123°27'0 0.0
2018-Jun-19 17:59N 48°39' W 123°27'0 4.4
2018-Jun-19 17:58N 48°39' W 123°27'0 0.1
2018-Jun-19 17:26N 48°39' W 123°27'0 0.3
2018-Jun-19 17:13N 48°39' W 123°27'0 0.2
2018-Jun-19 16:59N 48°39' W 123°27'0 0.9
2018-Jun-19 16:55N 48°39' W 123°27'0 0.1
2018-Jun-19 16:29N 48°39' W 123°27'0 4.1
2018-Jun-19 16:28N 48°39' W 123°27'0 0.1
2018-Jun-19 15:59N 48°39' W 123°27'0 0.1
2018-Jun-19 15:34N 48°39' W 123°27'0 0.6
2018-Jun-19 15:29N 48°39' W 123°27'0 0.1
2018-Jun-19 15:07N 48°39' W 123°27'0 0.4
2018-Jun-19 14:59N 48°39' W 123°27'0 0.5
2018-Jun-19 14:52N 48°39' W 123°27'0 0.1
2018-Jun-19 14:29N 48°39' W 123°27'0 0.5
2018-Jun-19 14:22N 48°39' W 123°27'0 0.7
2018-Jun-19 14:00N 48°39' W 123°27'1 2.6
2018-Jun-19 13:29N 48°40' W 123°29'1 2.5
2018-Jun-19 12:59N 48°41' W 123°30'1 2.7
2018-Jun-19 12:30N 48°42' W 123°29'3 9.8
2018-Jun-19 12:11N 48°39' W 123°27'319.4
2018-Jun-19 12:00N 48°43' W 123°27'1 2.9
2018-Jun-19 11:29N 48°43' W 123°26'412.2
2018-Jun-19 11:08N 48°39' W 123°27'639.9
2018-Jun-19 10:59N 48°44' W 123°24'6655.3
2018-Jun-19 10:59N 48°39' W 123°27'715.0
2018-Jun-19 10:30N 48°45' W 123°20'756.7
2018-Jun-19 10:23N 48°39' W 123°27'921.6
2018-Jun-19 09:59N 48°44' W 123°17'957.5
2018-Jun-19 09:50N 48°39' W 123°27'1235.6
2018-Jun-19 09:30N 48°43' W 123°10'12 4.4
2018-Jun-19 06:47N 48°39' W 123°27'0 0.0
2018-Jun-19 06:26N 48°39' W 123°27'0 0.0
2018-Jun-19 05:50N 48°39' W 123°27'0 0.0
2018-Jun-19 05:26N 48°39' W 123°27'5120.3
2018-Jun-19 02:56N 49°21' W 124°13'510.4
2018-Jun-19 02:29N 49°22' W 124°20'610.3
2018-Jun-19 01:57N 49°25' W 124°27'60928.3
2018-Jun-19 01:53N 48°39' W 123°27'0 0.0
2018-Jun-19 01:29N 48°39' W 123°27'651178.7
2018-Jun-19 01:25N 49°27' W 124°35'4 8.4
2018-Jun-19 01:00N 49°28' W 124°40'68554.0
2018-Jun-19 00:53N 48°39' W 123°27'69178.1
2018-Jun-19 00:29N 49°28' W 124°42'696073.1
2018-Jun-19 00:29N 48°39' W 123°27'71146.3
2018-Jun-19 00:00N 49°28' W 124°45'71604.6
2018-Jun-18 23:53N 48°39' W 123°27'72181.5
2018-Jun-18 23:29N 49°29' W 124°46'7223568.1
2018-Jun-18 23:29N 48°39' W 123°27'75149.7
2018-Jun-18 22:59N 49°32' W 124°50'751593.8
2018-Jun-18 22:56N 48°39' W 123°27'78172.1
2018-Jun-18 22:29N 49°34' W 124°52'781639.6
2018-Jun-18 22:26N 48°39' W 123°27'79186.2
2018-Jun-18 22:00N 49°36' W 124°52'79632.7
2018-Jun-18 21:53N 48°39' W 123°27'79212.7
2018-Jun-18 21:30N 49°36' W 124°52'79291.5
2018-Jun-18 21:14N 48°39' W 123°27'79348.1
2018-Jun-18 21:00N 49°36' W 124°52'791009.9
2018-Jun-18 20:56N 48°39' W 123°27'80175.2
2018-Jun-18 20:28N 49°36' W 124°52'801758.2
2018-Jun-18 20:26N 48°39' W 123°27'80185.2
2018-Jun-18 20:00N 49°37' W 124°52'2 3.1
2018-Jun-18 19:29N 49°39' W 124°53'0 1.0
2018-Jun-18 19:00N 49°39' W 124°53'82172.7
2018-Jun-18 18:32N 48°39' W 123°27'821629.9
2018-Jun-18 18:29N 49°39' W 124°54'821657.2
2018-Jun-18 18:26N 48°39' W 123°27'82176.4
2018-Jun-18 17:58N 49°39' W 124°54'822560.2
2018-Jun-18 17:56N 48°39' W 123°27'83191.8
2018-Jun-18 17:30N 49°39' W 124°55'831234.0
2018-Jun-18 17:26N 48°39' W 123°27'82193.4
2018-Jun-18 17:00N 49°39' W 124°54'821090.7
2018-Jun-18 16:56N 48°39' W 123°27'82186.0
2018-Jun-18 16:29N 49°39' W 124°54'82516.6
2018-Jun-18 16:20N 48°39' W 123°27'82250.8
2018-Jun-18 16:00N 49°39' W 124°54'82474.9
2018-Jun-18 15:50N 48°39' W 123°27'82250.3
2018-Jun-18 15:30N 49°38' W 124°54'823640.4
2018-Jun-18 15:29N 48°39' W 123°27'0 0.1
2018-Jun-18 15:00N 48°39' W 123°27'2 3.9
2018-Jun-18 14:31N 48°39' W 123°30'799494.2
2018-Jun-18 14:30N 49°37' W 124°53'78156.5
2018-Jun-18 14:00N 48°41' W 123°30'784786.6
2018-Jun-18 13:59N 49°38' W 124°53'1 1.4
2018-Jun-18 13:30N 49°38' W 124°52'7893613.9
2018-Jun-18 13:30N 48°43' W 123°28'4 8.3
2018-Jun-18 13:00N 48°45' W 123°23'805841.5
2018-Jun-18 13:00N 49°38' W 124°53'83170.8
2018-Jun-18 12:30N 48°44' W 123°17'8430122.5
2018-Jun-18 12:30N 49°39' W 124°53'1 2.9
2018-Jun-18 12:00N 49°38' W 124°52'8610368.4
2018-Jun-18 12:00N 48°39' W 123°14'4 9.1
2018-Jun-18 11:30N 48°35' W 123°13'9132891.5
2018-Jun-18 11:30N 49°38' W 124°54'1 1.5
2018-Jun-18 11:01N 49°39' W 124°54'9657427.6
2018-Jun-18 11:00N 48°31' W 123°11'5 9.3
2018-Jun-18 10:30N 48°26' W 123°10'997252.1
2018-Jun-18 10:30N 49°38' W 124°54'0 0.2
2018-Jun-18 10:00N 49°38' W 124°54'9916972.4
2018-Jun-18 10:00N 48°23' W 123°15'5 9.5
2018-Jun-18 09:30N 48°22' W 123°22'9814647.9
2018-Jun-18 09:30N 49°38' W 124°54'0 0.5
2018-Jun-18 09:00N 49°39' W 124°54'1 2.3
2018-Jun-18 08:30N 49°38' W 124°54'0 0.5
2018-Jun-18 07:59N 49°38' W 124°54'98768.4
2018-Jun-18 07:52N 48°13' W 123°37'3 9.2
2018-Jun-18 07:30N 48°13' W 123°42'98177065.3
2018-Jun-18 07:30N 49°39' W 124°55'97194.4
2018-Jun-18 07:00N 48°13' W 123°48'953419.3
2018-Jun-18 06:59N 49°38' W 124°54'2 3.2
2018-Jun-18 06:30N 49°39' W 124°55'94529.5
2018-Jun-18 06:20N 48°13' W 123°56'95290.6
2018-Jun-18 06:00N 49°39' W 124°56'921524.5
2018-Jun-18 05:56N 48°14' W 123°60'3 7.9
2018-Jun-18 05:30N 48°16' W 124°05'897990.6
2018-Jun-18 05:29N 49°38' W 124°55'86179.3
2018-Jun-18 05:00N 48°18' W 124°10'864462.1
2018-Jun-18 04:59N 49°38' W 124°54'2 3.2
2018-Jun-18 04:30N 49°39' W 124°54'8427518.4
2018-Jun-18 04:30N 48°19' W 124°15'4 8.2
2018-Jun-18 04:00N 48°21' W 124°20'809605.8
2018-Jun-18 04:00N 49°38' W 124°54'1 2.7
2018-Jun-18 03:30N 49°38' W 124°53'78279861.3
2018-Jun-18 03:30N 48°23' W 124°26'4 8.3
2018-Jun-18 03:00N 48°24' W 124°32'761951.5
2018-Jun-18 02:58N 49°39' W 124°54'3 6.4
2018-Jun-18 02:30N 49°37' W 124°52'71257111.3
2018-Jun-18 02:30N 48°26' W 124°38'4 8.3
2018-Jun-18 02:00N 48°28' W 124°43'6962484.0
2018-Jun-18 02:00N 49°37' W 124°52'69135.7
2018-Jun-18 01:30N 48°28' W 124°50'4 8.3
2018-Jun-18 01:00N 48°28' W 124°56'61303.5
2018-Jun-18 00:48N 49°29' W 124°46'62207.2
2018-Jun-18 00:30N 48°28' W 125°02'623642.1
2018-Jun-18 00:29N 49°29' W 124°46'63130.1
2018-Jun-18 00:01N 48°28' W 125°09'631941.9
2018-Jun-17 23:59N 49°29' W 124°46'0 0.1
2018-Jun-17 23:30N 49°29' W 124°46'631730.6
2018-Jun-17 23:28N 48°29' W 125°16'4 8.7
2018-Jun-17 22:59N 48°30' W 125°22'64348.9
2018-Jun-17 22:48N 49°28' W 124°40'65222.6
2018-Jun-17 22:30N 48°31' W 125°28'652973.5
2018-Jun-17 22:29N 49°28' W 124°42'67139.6
2018-Jun-17 22:00N 48°31' W 125°35'6618321.8
2018-Jun-17 22:00N 49°28' W 124°44'0 0.8
2018-Jun-17 21:30N 49°28' W 124°45'67242063.8
2018-Jun-17 21:30N 48°32' W 125°41'4 8.4
2018-Jun-17 21:00N 48°33' W 125°47'6920619.4
2018-Jun-17 21:00N 49°29' W 124°46'71142.1
2018-Jun-17 20:30N 48°34' W 125°53'712303.3
2018-Jun-17 20:29N 49°29' W 124°46'73156.0
2018-Jun-17 20:00N 48°34' W 125°60'73569.9
2018-Jun-17 19:53N 49°31' W 124°49'75202.3
2018-Jun-17 19:30N 48°35' W 126°06'4 8.6
2018-Jun-17 19:00N 48°36' W 126°13'78279.2
2018-Jun-17 18:44N 49°31' W 124°48'81363.7
2018-Jun-17 18:30N 48°36' W 126°19'801609.4
2018-Jun-17 18:27N 49°32' W 124°50'82183.6
2018-Jun-17 18:00N 48°37' W 126°23'826743.6
2018-Jun-17 18:00N 49°32' W 124°50'85174.3
2018-Jun-17 17:30N 48°38' W 126°29'85152859.9
2018-Jun-17 17:30N 49°34' W 124°52'1 1.8
2018-Jun-17 17:00N 49°34' W 124°51'8924560.7
2018-Jun-17 17:00N 48°39' W 126°36'89179.6
2018-Jun-17 16:30N 49°36' W 124°52'9132734.9
2018-Jun-17 16:30N 48°39' W 126°40'0 0.0
2018-Jun-17 16:00N 48°39' W 126°40'918166.1
2018-Jun-17 16:00N 49°38' W 124°54'91186.8
2018-Jun-17 15:30N 48°39' W 126°40'924224.0
2018-Jun-17 15:29N 49°38' W 124°54'1 1.3
2018-Jun-17 15:00N 49°39' W 124°53'96186.3
2018-Jun-17 14:29N 48°40' W 126°49'952271.9
2018-Jun-17 14:27N 49°39' W 124°55'99222.0
2018-Jun-17 14:00N 48°41' W 126°56'992085.8
2018-Jun-17 13:57N 49°39' W 124°54'2 5.2
2018-Jun-17 13:30N 49°37' W 124°53'103836.7
2018-Jun-17 13:23N 48°41' W 127°06'104274.1
2018-Jun-17 13:00N 49°39' W 124°54'107925.6
2018-Jun-17 12:53N 48°42' W 127°13'107281.6
2018-Jun-17 12:31N 49°38' W 124°53'11066203.8
2018-Jun-17 12:30N 48°42' W 127°19'110217.3
2018-Jun-17 12:00N 49°39' W 124°53'11437425.4
2018-Jun-17 12:00N 48°43' W 127°26'5 9.6
2018-Jun-17 11:28N 48°43' W 127°34'11811820.9
2018-Jun-17 11:28N 49°39' W 124°54'2 3.9
2018-Jun-17 11:00N 49°37' W 124°53'1223992.0
2018-Jun-17 10:59N 48°44' W 127°41'122261.0
2018-Jun-17 10:31N 49°39' W 124°54'2 3.4
2018-Jun-17 09:51N 49°37' W 124°52'3 8.5
2018-Jun-17 09:30N 49°34' W 124°52'135953.1
2018-Jun-17 09:22N 48°45' W 128°04'137264.7
2018-Jun-17 08:51N 49°29' W 124°46'5 8.8
2018-Jun-17 08:19N 49°28' W 124°40'410.1
2018-Jun-17 07:57N 49°26' W 124°35'3 6.6
2018-Jun-17 07:30N 49°23' W 124°32'4 6.1
2018-Jun-17 06:54N 49°25' W 124°37'1 1.4
2018-Jun-17 06:29N 49°25' W 124°36'168840.3
2018-Jun-17 06:17N 48°50' W 128°47'3 8.8
2018-Jun-17 06:00N 48°50' W 128°51'172310434.3
2018-Jun-17 06:00N 49°23' W 124°32'177353.6
2018-Jun-17 05:30N 48°50' W 128°57'1752371.4
2018-Jun-17 05:26N 49°25' W 124°36'1 2.8
2018-Jun-17 05:00N 49°25' W 124°37'1791113.0
2018-Jun-17 04:50N 48°51' W 129°06'182423.3
2018-Jun-17 04:25N 49°23' W 124°32'18613671.3
2018-Jun-17 04:24N 48°52' W 129°12'187463.1
2018-Jun-17 04:00N 49°23' W 124°31'4 5.8
2018-Jun-17 03:16N 49°25' W 124°25'4 8.6
2018-Jun-17 02:50N 49°23' W 124°20'215248.0
2018-Jun-17 01:57N 48°55' W 129°47'14 9.2
2018-Jun-17 00:26N 48°56' W 130°08'26587.9
2018-Jun-16 21:25N 48°59' W 123°24'7 7.6
2018-Jun-16 20:34N 48°53' W 123°18'1 9.5
2018-Jun-16 20:30N 48°53' W 123°18'4 6.4
2018-Jun-16 19:52N 48°49' W 123°21'3 7.5
2018-Jun-16 19:30N 48°46' W 123°22'5 9.5
2018-Jun-16 19:00N 48°43' W 123°27'4 7.3
2018-Jun-16 18:30N 48°40' W 123°29'1 2.0
2018-Jun-16 17:59N 48°39' W 123°27'0 0.0
2018-Jun-16 17:20N 48°39' W 123°27'0 0.0
2018-Jun-16 16:59N 48°39' W 123°27'0 0.0
2018-Jun-16 16:26N 48°39' W 123°27'0 0.0
2018-Jun-16 15:41N 48°39' W 123°27'0 0.0
2018-Jun-16 15:20N 48°39' W 123°27'0 0.0
2018-Jun-16 14:59N 48°39' W 123°27'0 0.0
2018-Jun-16 14:17N 48°39' W 123°27'0 0.9
2018-Jun-16 14:00N 48°39' W 123°27'2 4.4
2018-Jun-16 13:30N 48°41' W 123°30'3 5.6
2018-Jun-16 13:00N 48°43' W 123°27'3 6.2
2018-Jun-16 12:30N 48°44' W 123°23'4 8.3
2018-Jun-16 12:00N 48°44' W 123°17'5 9.3
2018-Jun-16 11:30N 48°44' W 123°10'7 9.1
2018-Jun-16 10:46N 48°47' W 123°01'4 8.8
2018-Jun-16 10:18N 48°51' W 123°04'310.6
2018-Jun-16 09:59N 48°53' W 123°08'510.0
2018-Jun-16 09:28N 48°57' W 123°14'5 9.8
2018-Jun-16 09:00N 48°60' W 123°19'4510.3
2018-Jun-16 04:38N 49°32' W 124°06'210.2
2018-Jun-16 04:28N 49°34' W 124°08'810.6
2018-Jun-16 03:44N 49°40' W 124°15'1 3.8
2018-Jun-16 03:28N 49°40' W 124°17'0 0.3
2018-Jun-16 03:00N 49°40' W 124°16'0 0.2
2018-Jun-16 02:30N 49°40' W 124°17'511.1
2018-Jun-16 02:00N 49°44' W 124°23'510.7
2018-Jun-16 01:30N 49°46' W 124°30'2 3.9
2018-Jun-16 01:00N 49°47' W 124°33'510.6
2018-Jun-16 00:30N 49°52' W 124°37'510.2
2018-Jun-16 00:00N 49°56' W 124°42'4 8.9
2018-Jun-15 23:30N 49°58' W 124°48'4 8.5
2018-Jun-15 23:00N 50°01' W 124°53'3 5.8
2018-Jun-15 22:29N 50°00' W 124°57'3 5.3
2018-Jun-15 22:00N 50°00' W 125°01'3 6.5
2018-Jun-15 21:30N 50°02' W 125°05'3 6.3
2018-Jun-15 21:00N 49°59' W 125°04'2 3.4
2018-Jun-15 20:29N 49°58' W 125°07'1 3.0
2018-Jun-15 20:00N 49°58' W 125°09'4 7.3
2018-Jun-15 19:30N 49°55' W 125°06'4 8.1
2018-Jun-15 19:00N 49°52' W 125°02'2 3.4
2018-Jun-15 18:31N 49°53' W 125°00'0 0.6
2018-Jun-15 18:00N 49°53' W 124°60'0 0.2
2018-Jun-15 17:30N 49°53' W 124°60'1 1.5
2018-Jun-15 17:00N 49°53' W 124°59'3 5.8
2018-Jun-15 16:30N 49°55' W 124°55'4 8.5
2018-Jun-15 16:00N 49°52' W 124°51'5 9.6
2018-Jun-15 15:30N 49°48' W 124°47'5 9.7
2018-Jun-15 15:00N 49°44' W 124°42'1 2.0
2018-Jun-15 14:30N 49°44' W 124°41'0 0.3
2018-Jun-15 14:00N 49°44' W 124°41'0 0.5
2018-Jun-15 13:30N 49°44' W 124°41'2 4.4
2018-Jun-15 13:00N 49°42' W 124°44'0 0.5
2018-Jun-15 12:30N 49°42' W 124°43'3 6.0
2018-Jun-15 12:00N 49°41' W 124°47'4 7.1
2018-Jun-15 11:30N 49°38' W 124°43'4 7.8
2018-Jun-15 10:58N 49°36' W 124°38'1 2.2
2018-Jun-15 10:30N 49°36' W 124°37'4 6.5
2018-Jun-15 09:53N 49°39' W 124°33'2 6.6
2018-Jun-15 09:30N 49°38' W 124°30'5 9.6
2018-Jun-15 09:00N 49°34' W 124°24'3 3.6
2018-Jun-15 08:18N 49°32' W 124°26'2 6.1
2018-Jun-15 07:59N 49°31' W 124°28'1 2.8
2018-Jun-15 07:27N 49°29' W 124°29'2 4.8
2018-Jun-15 07:00N 49°27' W 124°31'0 0.1
2018-Jun-15 06:22N 49°28' W 124°31'6 3.7
2018-Jun-15 04:41N 49°25' W 124°22'11 4.6
2018-Jun-15 02:16N 49°22' W 124°05'3 9.3
2018-Jun-15 01:57N 49°24' W 124°09'6 2.3
2018-Jun-14 23:08N 49°30' W 124°06'29 3.9
2018-Jun-14 15:37N 49°09' W 123°36'2 6.1
2018-Jun-14 15:17N 49°10' W 123°33'0 0.2
2018-Jun-14 14:58N 49°10' W 123°33'1 3.0
2018-Jun-14 14:29N 49°10' W 123°31'3 6.8
2018-Jun-14 13:59N 49°12' W 123°26'0 0.0
2018-Jun-14 13:28N 49°12' W 123°26'0 0.3
2018-Jun-14 13:00N 49°12' W 123°26'4 7.2
2018-Jun-14 12:30N 49°14' W 123°22'2 3.5
2018-Jun-14 11:58N 49°12' W 123°20'5 9.8
2018-Jun-14 11:29N 49°07' W 123°21'4 7.6
2018-Jun-14 10:59N 49°04' W 123°19'2 3.4
2018-Jun-14 10:25N 49°03' W 123°22'0 0.2
2018-Jun-14 09:57N 49°03' W 123°22'2 4.8
2018-Jun-14 09:28N 49°02' W 123°25'1 0.9
2018-Jun-14 08:39N 49°02' W 123°26'0 0.7
2018-Jun-14 08:08N 49°01' W 123°27'4 3.4
2018-Jun-14 07:04N 48°59' W 123°23'1 9.7
2018-Jun-14 06:57N 48°59' W 123°21'2 4.7
2018-Jun-14 06:29N 48°58' W 123°18'4 8.0
2018-Jun-14 06:00N 49°01' W 123°14'2 3.3
2018-Jun-14 05:29N 48°60' W 123°12'5 9.0
2018-Jun-14 04:54N 48°56' W 123°07'4 7.2
2018-Jun-14 04:20N 48°52' W 123°09'1 3.1
2018-Jun-14 03:56N 48°51' W 123°11'0 0.2
2018-Jun-14 03:24N 48°51' W 123°11'3 6.9
2018-Jun-14 02:59N 48°54' W 123°08'3 6.6
2018-Jun-14 02:30N 48°57' W 123°06'3 6.9
2018-Jun-14 02:00N 48°56' W 123°01'2 1.5
2018-Jun-14 00:59N 48°55' W 122°60'4 5.6
2018-Jun-14 00:16N 48°52' W 123°03'2 5.2
2018-Jun-13 23:55N 48°50' W 123°05'6 4.1
2018-Jun-13 22:24N 48°44' W 123°08'4 8.7
2018-Jun-13 21:57N 48°43' W 123°14'0 0.6
2018-Jun-13 21:28N 48°43' W 123°14'  
Track history (hours):
 
Tides and Currents Weather Stations Pressure Air Temp Water Temp Dewpoint Dewpoint Depression Visibility Wind Speed Wind Dir Waves Ship Positions

Oceanographic research ship John P. Tully (Canada)

Detailed information on ship capabilities available from University of Delaware's Ocean Information Center.

Last reported at 2018-Jun-23 20:05 UTC. Time now 2018-Jun-23 23:19 UTC.
Position N 50°32' W 126°15'.

Length 68.9 m; beam 14.5 m; draft 4.5 m.

Type: SAR. MMSI: 316114000.

Date/timePositionNaut miles runAvg speedWind from/ knotsBaromVisibWave heightAir tempDewpointWater temp
2018-Jun-23 20:05N 50°32' W 126°15'1 7.8
2018-Jun-23 19:54N 50°32' W 126°17'22 0.9
2018-Jun-22 18:23N 50°22' W 125°45'1 0.3
2018-Jun-22 15:33N 50°22' W 125°44'12 6.1
2018-Jun-22 13:41N 50°21' W 125°26'210.5
2018-Jun-22 13:29N 50°22' W 125°24'510.0
2018-Jun-22 12:58N 50°26' W 125°19'3 5.6
2018-Jun-22 12:29N 50°28' W 125°17'2 0.2
2018-Jun-22 03:40N 50°30' W 125°15'1 6.0
2018-Jun-22 03:28N 50°29' W 125°16'13223.0
2018-Jun-21 21:42N 48°21' W 126°08'2 9.3
2018-Jun-21 21:29N 48°21' W 126°05'121207.5
2018-Jun-21 20:54N 50°20' W 125°26'118303.7
2018-Jun-21 20:31N 48°24' W 125°51'1143652.7
2018-Jun-21 20:29N 50°16' W 125°24'1132599.4
2018-Jun-21 20:26N 48°24' W 125°50'110246.2
2018-Jun-21 19:59N 50°13' W 125°22'1083614.5
2018-Jun-21 19:58N 48°25' W 125°43'104227.1
2018-Jun-21 19:30N 50°08' W 125°21'1025343.1
2018-Jun-21 19:29N 48°26' W 125°36'100209.2
2018-Jun-21 19:00N 50°06' W 125°17'973917.7
2018-Jun-21 18:59N 48°29' W 125°30'94190.5
2018-Jun-21 18:29N 50°03' W 125°14'9219419.6
2018-Jun-21 18:29N 48°31' W 125°23'89187.8
2018-Jun-21 18:00N 49°60' W 125°13'89482.7
2018-Jun-21 17:49N 48°31' W 125°14'3 9.1
2018-Jun-21 17:30N 48°31' W 125°10'86310291.2
2018-Jun-21 17:30N 49°58' W 125°09'86170.6
2018-Jun-21 17:00N 48°31' W 125°03'8310700.6
2018-Jun-21 17:00N 49°55' W 125°05'4 8.2
2018-Jun-21 16:30N 49°52' W 125°00'814755.6
2018-Jun-21 16:29N 48°31' W 124°56'4 9.2
2018-Jun-21 16:00N 48°31' W 124°49'7825456.0
2018-Jun-21 16:00N 49°49' W 124°56'4 8.3
2018-Jun-21 15:30N 49°46' W 124°51'7630286.6
2018-Jun-21 15:30N 48°31' W 124°42'73146.2
2018-Jun-21 15:00N 49°43' W 124°47'7529997.7
2018-Jun-21 15:00N 48°29' W 124°35'5 9.7
2018-Jun-21 14:30N 48°27' W 124°28'4 8.5
2018-Jun-21 14:01N 48°25' W 124°23'510.2
2018-Jun-21 13:30N 48°23' W 124°16'7326135.5
2018-Jun-21 13:30N 49°35' W 124°33'75148.9
2018-Jun-21 13:00N 48°21' W 124°08'721074.8
2018-Jun-21 12:56N 49°32' W 124°28'74170.7
2018-Jun-21 12:30N 48°19' W 124°01'1010.1
2018-Jun-21 11:29N 48°17' W 123°46'16 8.8
2018-Jun-21 09:42N 48°23' W 123°24'210.0
2018-Jun-21 09:29N 48°23' W 123°21'510.5
2018-Jun-21 09:00N 48°24' W 123°14'5 9.4
2018-Jun-21 08:30N 48°29' W 123°13'44145.2
2018-Jun-21 08:12N 49°10' W 123°36'39191.5
2018-Jun-21 08:00N 48°34' W 123°13'3766401.5
2018-Jun-21 08:00N 49°08' W 123°34'3265.6
2018-Jun-21 07:30N 48°38' W 123°15'27211.4
2018-Jun-21 07:23N 49°04' W 123°28'2258.5
2018-Jun-21 07:00N 48°43' W 123°16'191133.8
2018-Jun-21 06:59N 49°02' W 123°24'1735.7
2018-Jun-21 06:30N 48°45' W 123°23'5 9.5
2018-Jun-21 06:00N 48°42' W 123°29'1678.0
2018-Jun-21 05:48N 48°54' W 123°13'1862.4
2018-Jun-21 05:30N 48°39' W 123°30'1832517.4
2018-Jun-21 05:30N 48°53' W 123°11'1835.7
2018-Jun-21 05:00N 48°39' W 123°29'2 3.1
2018-Jun-21 04:30N 48°39' W 123°27'1885.0
2018-Jun-21 04:18N 48°46' W 123°02'1852.5
2018-Jun-21 03:57N 48°39' W 123°27'1133.0
2018-Jun-21 03:38N 48°43' W 123°12'110.7
2018-Jun-21 03:31N 48°43' W 123°14'10187.0
2018-Jun-21 03:27N 48°39' W 123°27'714.2
2018-Jun-21 03:00N 48°45' W 123°21'774.8
2018-Jun-21 02:54N 48°39' W 123°27'3 8.2
2018-Jun-21 02:30N 48°43' W 123°28'311.7
2018-Jun-21 02:12N 48°39' W 123°27'2 8.7
2018-Jun-21 02:01N 48°40' W 123°30'21562.6
2018-Jun-21 02:00N 48°39' W 123°27'0 0.0
2018-Jun-21 01:30N 48°39' W 123°27'0 1.3
2018-Jun-21 01:28N 48°39' W 123°27'0 0.0
2018-Jun-21 00:40N 48°39' W 123°27'0 0.1
2018-Jun-20 23:49N 48°39' W 123°27'0 0.0
2018-Jun-20 22:34N 48°39' W 123°27'0 0.0
2018-Jun-20 22:28N 48°39' W 123°27'0 0.5
2018-Jun-20 22:21N 48°39' W 123°27'0 0.1
2018-Jun-20 21:58N 48°39' W 123°27'0 0.2
2018-Jun-20 21:42N 48°39' W 123°27'0 0.0
2018-Jun-20 21:27N 48°39' W 123°27'0 1.3
2018-Jun-20 21:25N 48°39' W 123°27'0 0.1
2018-Jun-20 21:00N 48°39' W 123°27'0 1.3
2018-Jun-20 20:58N 48°39' W 123°27'0 0.0
2018-Jun-20 17:36N 48°39' W 123°27'0 0.0
2018-Jun-20 17:15N 48°39' W 123°27'0 0.0
2018-Jun-20 16:51N 48°39' W 123°27'0 0.0
2018-Jun-20 16:30N 48°39' W 123°27'0 0.0
2018-Jun-20 14:55N 48°39' W 123°27'0 1.1
2018-Jun-20 14:52N 48°39' W 123°27'0 0.0
2018-Jun-20 14:28N 48°39' W 123°27'0 0.2
2018-Jun-20 14:12N 48°39' W 123°27'0 0.0
2018-Jun-20 13:57N 48°39' W 123°27'0 1.3
2018-Jun-20 13:55N 48°39' W 123°27'0 0.0
2018-Jun-20 13:28N 48°39' W 123°27'0 6.4
2018-Jun-20 13:27N 48°39' W 123°27'0 0.1
2018-Jun-20 12:58N 48°39' W 123°27'0 6.9
2018-Jun-20 12:57N 48°39' W 123°27'0 0.0
2018-Jun-20 12:30N 48°39' W 123°27'0 0.6
2018-Jun-20 12:25N 48°39' W 123°27'0 0.1
2018-Jun-20 12:00N 48°39' W 123°27'0 1.3
2018-Jun-20 11:58N 48°39' W 123°27'0 0.1
2018-Jun-20 11:27N 48°39' W 123°27'0 1.3
2018-Jun-20 11:25N 48°39' W 123°27'0 0.1
2018-Jun-20 10:57N 48°39' W 123°27'0 1.3
2018-Jun-20 10:55N 48°39' W 123°27'0 0.0
2018-Jun-20 10:28N 48°39' W 123°27'0 6.6
2018-Jun-20 10:27N 48°39' W 123°27'0 0.1
2018-Jun-20 09:58N 48°39' W 123°27'0 6.9
2018-Jun-20 09:57N 48°39' W 123°27'0 0.0
2018-Jun-20 09:30N 48°39' W 123°27'0 0.6
2018-Jun-20 09:25N 48°39' W 123°27'0 0.1
2018-Jun-20 09:00N 48°39' W 123°27'0 0.6
2018-Jun-20 08:55N 48°39' W 123°27'0 0.1
2018-Jun-20 08:30N 48°39' W 123°27'0 0.2
2018-Jun-20 08:13N 48°39' W 123°27'0 0.0
2018-Jun-20 07:58N 48°39' W 123°27'012.9
2018-Jun-20 07:58N 48°39' W 123°27'0 0.0
2018-Jun-20 07:26N 48°39' W 123°27'0 0.8
2018-Jun-20 07:22N 48°39' W 123°27'0 0.1
2018-Jun-20 06:58N 48°39' W 123°27'0 1.0
2018-Jun-20 06:55N 48°39' W 123°27'0 0.1
2018-Jun-20 06:28N 48°39' W 123°27'038.6
2018-Jun-20 06:28N 48°39' W 123°27'0 0.1
2018-Jun-20 06:00N 48°39' W 123°27'0 0.7
2018-Jun-20 05:55N 48°39' W 123°27'0 0.1
2018-Jun-20 05:30N 48°39' W 123°27'0 0.7
2018-Jun-20 05:25N 48°39' W 123°27'0 0.1
2018-Jun-20 04:59N 48°39' W 123°27'0 0.5
2018-Jun-20 04:52N 48°39' W 123°27'0 0.0
2018-Jun-20 04:28N 48°39' W 123°27'0 1.4
2018-Jun-20 04:26N 48°39' W 123°27'0 0.0
2018-Jun-20 03:59N 48°39' W 123°27'0 0.3
2018-Jun-20 03:49N 48°39' W 123°27'0 0.2
2018-Jun-20 03:29N 48°39' W 123°27'0 0.8
2018-Jun-20 03:25N 48°39' W 123°27'0 0.0
2018-Jun-20 02:58N 48°39' W 123°27'0 1.4
2018-Jun-20 02:56N 48°39' W 123°27'0 0.1
2018-Jun-20 02:25N 48°39' W 123°27'0 0.4
2018-Jun-20 02:17N 48°39' W 123°27'0 0.1
2018-Jun-20 01:55N 48°39' W 123°27'0 0.0
2018-Jun-20 01:28N 48°39' W 123°27'0 0.6
2018-Jun-20 01:23N 48°39' W 123°27'0 0.0
2018-Jun-20 00:59N 48°39' W 123°27'0 4.2
2018-Jun-20 00:58N 48°39' W 123°27'0 0.1
2018-Jun-20 00:29N 48°39' W 123°27'0 0.3
2018-Jun-20 00:19N 48°39' W 123°27'0 0.0
2018-Jun-19 23:58N 48°39' W 123°27'0 0.2
2018-Jun-19 23:44N 48°39' W 123°27'0 0.1
2018-Jun-19 23:22N 48°39' W 123°27'0 0.2
2018-Jun-19 23:08N 48°39' W 123°27'0 0.3
2018-Jun-19 22:58N 48°39' W 123°27'0 0.6
2018-Jun-19 22:53N 48°39' W 123°27'0 0.0
2018-Jun-19 22:08N 48°39' W 123°27'0 0.0
2018-Jun-19 21:56N 48°39' W 123°27'0 0.2
2018-Jun-19 21:34N 48°39' W 123°27'0 0.1
2018-Jun-19 20:47N 48°39' W 123°27'0 0.5
2018-Jun-19 20:40N 48°39' W 123°27'0 0.3
2018-Jun-19 20:29N 48°39' W 123°27'0 4.3
2018-Jun-19 20:28N 48°39' W 123°27'0 0.1
2018-Jun-19 19:59N 48°39' W 123°27'0 0.1
2018-Jun-19 19:37N 48°39' W 123°27'0 0.0
2018-Jun-19 19:25N 48°39' W 123°27'0 1.4
2018-Jun-19 19:23N 48°39' W 123°27'0 0.0
2018-Jun-19 18:59N 48°39' W 123°27'0 0.1
2018-Jun-19 18:34N 48°39' W 123°27'0 0.0
2018-Jun-19 18:22N 48°39' W 123°27'0 0.6
2018-Jun-19 18:17N 48°39' W 123°27'0 0.0
2018-Jun-19 17:59N 48°39' W 123°27'0 4.4
2018-Jun-19 17:58N 48°39' W 123°27'0 0.1
2018-Jun-19 17:26N 48°39' W 123°27'0 0.3
2018-Jun-19 17:13N 48°39' W 123°27'0 0.2
2018-Jun-19 16:59N 48°39' W 123°27'0 0.9
2018-Jun-19 16:55N 48°39' W 123°27'0 0.1
2018-Jun-19 16:29N 48°39' W 123°27'0 4.1
2018-Jun-19 16:28N 48°39' W 123°27'0 0.1
2018-Jun-19 15:59N 48°39' W 123°27'0 0.1
2018-Jun-19 15:34N 48°39' W 123°27'0 0.6
2018-Jun-19 15:29N 48°39' W 123°27'0 0.1
2018-Jun-19 15:07N 48°39' W 123°27'0 0.4
2018-Jun-19 14:59N 48°39' W 123°27'0 0.5
2018-Jun-19 14:52N 48°39' W 123°27'0 0.1
2018-Jun-19 14:29N 48°39' W 123°27'0 0.5
2018-Jun-19 14:22N 48°39' W 123°27'0 0.7
2018-Jun-19 14:00N 48°39' W 123°27'1 2.6
2018-Jun-19 13:29N 48°40' W 123°29'1 2.5
2018-Jun-19 12:59N 48°41' W 123°30'1 2.7
2018-Jun-19 12:30N 48°42' W 123°29'3 9.8
2018-Jun-19 12:11N 48°39' W 123°27'319.4
2018-Jun-19 12:00N 48°43' W 123°27'1 2.9
2018-Jun-19 11:29N 48°43' W 123°26'412.2
2018-Jun-19 11:08N 48°39' W 123°27'639.9
2018-Jun-19 10:59N 48°44' W 123°24'6655.3
2018-Jun-19 10:59N 48°39' W 123°27'715.0
2018-Jun-19 10:30N 48°45' W 123°20'756.7
2018-Jun-19 10:23N 48°39' W 123°27'921.6
2018-Jun-19 09:59N 48°44' W 123°17'957.5
2018-Jun-19 09:50N 48°39' W 123°27'1235.6
2018-Jun-19 09:30N 48°43' W 123°10'12 4.4
2018-Jun-19 06:47N 48°39' W 123°27'0 0.0
2018-Jun-19 06:26N 48°39' W 123°27'0 0.0
2018-Jun-19 05:50N 48°39' W 123°27'0 0.0
2018-Jun-19 05:26N 48°39' W 123°27'5120.3
2018-Jun-19 02:56N 49°21' W 124°13'510.4
2018-Jun-19 02:29N 49°22' W 124°20'610.3
2018-Jun-19 01:57N 49°25' W 124°27'60928.3
2018-Jun-19 01:53N 48°39' W 123°27'0 0.0
2018-Jun-19 01:29N 48°39' W 123°27'651178.7
2018-Jun-19 01:25N 49°27' W 124°35'4 8.4
2018-Jun-19 01:00N 49°28' W 124°40'68554.0
2018-Jun-19 00:53N 48°39' W 123°27'69178.1
2018-Jun-19 00:29N 49°28' W 124°42'696073.1
2018-Jun-19 00:29N 48°39' W 123°27'71146.3
2018-Jun-19 00:00N 49°28' W 124°45'71604.6
2018-Jun-18 23:53N 48°39' W 123°27'72181.5
2018-Jun-18 23:29N 49°29' W 124°46'7223568.1
2018-Jun-18 23:29N 48°39' W 123°27'75149.7
2018-Jun-18 22:59N 49°32' W 124°50'751593.8
2018-Jun-18 22:56N 48°39' W 123°27'78172.1
2018-Jun-18 22:29N 49°34' W 124°52'781639.6
2018-Jun-18 22:26N 48°39' W 123°27'79186.2
2018-Jun-18 22:00N 49°36' W 124°52'79632.7
2018-Jun-18 21:53N 48°39' W 123°27'79212.7
2018-Jun-18 21:30N 49°36' W 124°52'79291.5
2018-Jun-18 21:14N 48°39' W 123°27'79348.1
2018-Jun-18 21:00N 49°36' W 124°52'791009.9
2018-Jun-18 20:56N 48°39' W 123°27'80175.2
2018-Jun-18 20:28N 49°36' W 124°52'801758.2
2018-Jun-18 20:26N 48°39' W 123°27'80185.2
2018-Jun-18 20:00N 49°37' W 124°52'2 3.1
2018-Jun-18 19:29N 49°39' W 124°53'0 1.0
2018-Jun-18 19:00N 49°39' W 124°53'82172.7
2018-Jun-18 18:32N 48°39' W 123°27'821629.9
2018-Jun-18 18:29N 49°39' W 124°54'821657.2
2018-Jun-18 18:26N 48°39' W 123°27'82176.4
2018-Jun-18 17:58N 49°39' W 124°54'822560.2
2018-Jun-18 17:56N 48°39' W 123°27'83191.8
2018-Jun-18 17:30N 49°39' W 124°55'831234.0
2018-Jun-18 17:26N 48°39' W 123°27'82193.4
2018-Jun-18 17:00N 49°39' W 124°54'821090.7
2018-Jun-18 16:56N 48°39' W 123°27'82186.0
2018-Jun-18 16:29N 49°39' W 124°54'82516.6
2018-Jun-18 16:20N 48°39' W 123°27'82250.8
2018-Jun-18 16:00N 49°39' W 124°54'82474.9
2018-Jun-18 15:50N 48°39' W 123°27'82250.3
2018-Jun-18 15:30N 49°38' W 124°54'823640.4
2018-Jun-18 15:29N 48°39' W 123°27'0 0.1
2018-Jun-18 15:00N 48°39' W 123°27'2 3.9
2018-Jun-18 14:31N 48°39' W 123°30'799494.2
2018-Jun-18 14:30N 49°37' W 124°53'78156.5
2018-Jun-18 14:00N 48°41' W 123°30'784786.6
2018-Jun-18 13:59N 49°38' W 124°53'1 1.4
2018-Jun-18 13:30N 49°38' W 124°52'7893613.9
2018-Jun-18 13:30N 48°43' W 123°28'4 8.3
2018-Jun-18 13:00N 48°45' W 123°23'805841.5
2018-Jun-18 13:00N 49°38' W 124°53'83170.8
2018-Jun-18 12:30N 48°44' W 123°17'8430122.5
2018-Jun-18 12:30N 49°39' W 124°53'1 2.9
2018-Jun-18 12:00N 49°38' W 124°52'8610368.4
2018-Jun-18 12:00N 48°39' W 123°14'4 9.1
2018-Jun-18 11:30N 48°35' W 123°13'9132891.5
2018-Jun-18 11:30N 49°38' W 124°54'1 1.5
2018-Jun-18 11:01N 49°39' W 124°54'9657427.6
2018-Jun-18 11:00N 48°31' W 123°11'5 9.3
2018-Jun-18 10:30N 48°26' W 123°10'997252.1
2018-Jun-18 10:30N 49°38' W 124°54'0 0.2
2018-Jun-18 10:00N 49°38' W 124°54'9916972.4
2018-Jun-18 10:00N 48°23' W 123°15'5 9.5
2018-Jun-18 09:30N 48°22' W 123°22'9814647.9
2018-Jun-18 09:30N 49°38' W 124°54'0 0.5
2018-Jun-18 09:00N 49°39' W 124°54'1 2.3
2018-Jun-18 08:30N 49°38' W 124°54'0 0.5
2018-Jun-18 07:59N 49°38' W 124°54'98768.4
2018-Jun-18 07:52N 48°13' W 123°37'3 9.2
2018-Jun-18 07:30N 48°13' W 123°42'98177065.3
2018-Jun-18 07:30N 49°39' W 124°55'97194.4
2018-Jun-18 07:00N 48°13' W 123°48'953419.3
2018-Jun-18 06:59N 49°38' W 124°54'2 3.2
2018-Jun-18 06:30N 49°39' W 124°55'94529.5
2018-Jun-18 06:20N 48°13' W 123°56'95290.6
2018-Jun-18 06:00N 49°39' W 124°56'921524.5
2018-Jun-18 05:56N 48°14' W 123°60'3 7.9
2018-Jun-18 05:30N 48°16' W 124°05'897990.6
2018-Jun-18 05:29N 49°38' W 124°55'86179.3
2018-Jun-18 05:00N 48°18' W 124°10'864462.1
2018-Jun-18 04:59N 49°38' W 124°54'2 3.2
2018-Jun-18 04:30N 49°39' W 124°54'8427518.4
2018-Jun-18 04:30N 48°19' W 124°15'4 8.2
2018-Jun-18 04:00N 48°21' W 124°20'809605.8
2018-Jun-18 04:00N 49°38' W 124°54'1 2.7
2018-Jun-18 03:30N 49°38' W 124°53'78279861.3
2018-Jun-18 03:30N 48°23' W 124°26'4 8.3
2018-Jun-18 03:00N 48°24' W 124°32'761951.5
2018-Jun-18 02:58N 49°39' W 124°54'3 6.4
2018-Jun-18 02:30N 49°37' W 124°52'71257111.3
2018-Jun-18 02:30N 48°26' W 124°38'4 8.3
2018-Jun-18 02:00N 48°28' W 124°43'6962484.0
2018-Jun-18 02:00N 49°37' W 124°52'69135.7
2018-Jun-18 01:30N 48°28' W 124°50'4 8.3
2018-Jun-18 01:00N 48°28' W 124°56'61303.5
2018-Jun-18 00:48N 49°29' W 124°46'62207.2
2018-Jun-18 00:30N 48°28' W 125°02'623642.1
2018-Jun-18 00:29N 49°29' W 124°46'63130.1
2018-Jun-18 00:01N 48°28' W 125°09'631941.9
2018-Jun-17 23:59N 49°29' W 124°46'0 0.1
2018-Jun-17 23:30N 49°29' W 124°46'631730.6
2018-Jun-17 23:28N 48°29' W 125°16'4 8.7
2018-Jun-17 22:59N 48°30' W 125°22'64348.9
2018-Jun-17 22:48N 49°28' W 124°40'65222.6
2018-Jun-17 22:30N 48°31' W 125°28'652973.5
2018-Jun-17 22:29N 49°28' W 124°42'67139.6
2018-Jun-17 22:00N 48°31' W 125°35'6618321.8
2018-Jun-17 22:00N 49°28' W 124°44'0 0.8
2018-Jun-17 21:30N 49°28' W 124°45'67242063.8
2018-Jun-17 21:30N 48°32' W 125°41'4 8.4
2018-Jun-17 21:00N 48°33' W 125°47'6920619.4
2018-Jun-17 21:00N 49°29' W 124°46'71142.1
2018-Jun-17 20:30N 48°34' W 125°53'712303.3
2018-Jun-17 20:29N 49°29' W 124°46'73156.0
2018-Jun-17 20:00N 48°34' W 125°60'73569.9
2018-Jun-17 19:53N 49°31' W 124°49'75202.3
2018-Jun-17 19:30N 48°35' W 126°06'4 8.6
2018-Jun-17 19:00N 48°36' W 126°13'78279.2
2018-Jun-17 18:44N 49°31' W 124°48'81363.7
2018-Jun-17 18:30N 48°36' W 126°19'801609.4
2018-Jun-17 18:27N 49°32' W 124°50'82183.6
2018-Jun-17 18:00N 48°37' W 126°23'826743.6
2018-Jun-17 18:00N 49°32' W 124°50'85174.3
2018-Jun-17 17:30N 48°38' W 126°29'85152859.9
2018-Jun-17 17:30N 49°34' W 124°52'1 1.8
2018-Jun-17 17:00N 49°34' W 124°51'8924560.7
2018-Jun-17 17:00N 48°39' W 126°36'89179.6
2018-Jun-17 16:30N 49°36' W 124°52'9132734.9
2018-Jun-17 16:30N 48°39' W 126°40'0 0.0
2018-Jun-17 16:00N 48°39' W 126°40'918166.1
2018-Jun-17 16:00N 49°38' W 124°54'91186.8
2018-Jun-17 15:30N 48°39' W 126°40'924224.0
2018-Jun-17 15:29N 49°38' W 124°54'1 1.3
2018-Jun-17 15:00N 49°39' W 124°53'96186.3
2018-Jun-17 14:29N 48°40' W 126°49'952271.9
2018-Jun-17 14:27N 49°39' W 124°55'99222.0
2018-Jun-17 14:00N 48°41' W 126°56'992085.8
2018-Jun-17 13:57N 49°39' W 124°54'2 5.2
2018-Jun-17 13:30N 49°37' W 124°53'103836.7
2018-Jun-17 13:23N 48°41' W 127°06'104274.1
2018-Jun-17 13:00N 49°39' W 124°54'107925.6
2018-Jun-17 12:53N 48°42' W 127°13'107281.6
2018-Jun-17 12:31N 49°38' W 124°53'11066203.8
2018-Jun-17 12:30N 48°42' W 127°19'110217.3
2018-Jun-17 12:00N 49°39' W 124°53'11437425.4
2018-Jun-17 12:00N 48°43' W 127°26'5 9.6
2018-Jun-17 11:28N 48°43' W 127°34'11811820.9
2018-Jun-17 11:28N 49°39' W 124°54'2 3.9
2018-Jun-17 11:00N 49°37' W 124°53'1223992.0
2018-Jun-17 10:59N 48°44' W 127°41'122261.0
2018-Jun-17 10:31N 49°39' W 124°54'2 3.4
2018-Jun-17 09:51N 49°37' W 124°52'3 8.5
2018-Jun-17 09:30N 49°34' W 124°52'135953.1
2018-Jun-17 09:22N 48°45' W 128°04'137264.7
2018-Jun-17 08:51N 49°29' W 124°46'5 8.8
2018-Jun-17 08:19N 49°28' W 124°40'410.1
2018-Jun-17 07:57N 49°26' W 124°35'3 6.6
2018-Jun-17 07:30N 49°23' W 124°32'4 6.1
2018-Jun-17 06:54N 49°25' W 124°37'1 1.4
2018-Jun-17 06:29N 49°25' W 124°36'168840.3
2018-Jun-17 06:17N 48°50' W 128°47'3 8.8
2018-Jun-17 06:00N 48°50' W 128°51'172310434.3
2018-Jun-17 06:00N 49°23' W 124°32'177353.6
2018-Jun-17 05:30N 48°50' W 128°57'1752371.4
2018-Jun-17 05:26N 49°25' W 124°36'1 2.8
2018-Jun-17 05:00N 49°25' W 124°37'1791113.0
2018-Jun-17 04:50N 48°51' W 129°06'182423.3
2018-Jun-17 04:25N 49°23' W 124°32'18613671.3
2018-Jun-17 04:24N 48°52' W 129°12'187463.1
2018-Jun-17 04:00N 49°23' W 124°31'4 5.8
2018-Jun-17 03:16N 49°25' W 124°25'4 8.6
2018-Jun-17 02:50N 49°23' W 124°20'215248.0
2018-Jun-17 01:57N 48°55' W 129°47'14 9.2
2018-Jun-17 00:26N 48°56' W 130°08'26587.9
2018-Jun-16 21:25N 48°59' W 123°24'7 7.6
2018-Jun-16 20:34N 48°53' W 123°18'1 9.5
2018-Jun-16 20:30N 48°53' W 123°18'4 6.4
2018-Jun-16 19:52N 48°49' W 123°21'3 7.5
2018-Jun-16 19:30N 48°46' W 123°22'5 9.5
2018-Jun-16 19:00N 48°43' W 123°27'4 7.3
2018-Jun-16 18:30N 48°40' W 123°29'1 2.0
2018-Jun-16 17:59N 48°39' W 123°27'0 0.0
2018-Jun-16 17:20N 48°39' W 123°27'0 0.0
2018-Jun-16 16:59N 48°39' W 123°27'0 0.0
2018-Jun-16 16:26N 48°39' W 123°27'0 0.0
2018-Jun-16 15:41N 48°39' W 123°27'0 0.0
2018-Jun-16 15:20N 48°39' W 123°27'0 0.0
2018-Jun-16 14:59N 48°39' W 123°27'0 0.0
2018-Jun-16 14:17N 48°39' W 123°27'0 0.9
2018-Jun-16 14:00N 48°39' W 123°27'2 4.4
2018-Jun-16 13:30N 48°41' W 123°30'3 5.6
2018-Jun-16 13:00N 48°43' W 123°27'3 6.2
2018-Jun-16 12:30N 48°44' W 123°23'4 8.3
2018-Jun-16 12:00N 48°44' W 123°17'5 9.3
2018-Jun-16 11:30N 48°44' W 123°10'7 9.1
2018-Jun-16 10:46N 48°47' W 123°01'4 8.8
2018-Jun-16 10:18N 48°51' W 123°04'310.6
2018-Jun-16 09:59N 48°53' W 123°08'510.0
2018-Jun-16 09:28N 48°57' W 123°14'5 9.8
2018-Jun-16 09:00N 48°60' W 123°19'4510.3
2018-Jun-16 04:38N 49°32' W 124°06'210.2
2018-Jun-16 04:28N 49°34' W 124°08'810.6
2018-Jun-16 03:44N 49°40' W 124°15'1 3.8
2018-Jun-16 03:28N 49°40' W 124°17'0 0.3
2018-Jun-16 03:00N 49°40' W 124°16'0 0.2
2018-Jun-16 02:30N 49°40' W 124°17'511.1
2018-Jun-16 02:00N 49°44' W 124°23'510.7
2018-Jun-16 01:30N 49°46' W 124°30'2 3.9
2018-Jun-16 01:00N 49°47' W 124°33'510.6
2018-Jun-16 00:30N 49°52' W 124°37'510.2
2018-Jun-16 00:00N 49°56' W 124°42'4 8.9
2018-Jun-15 23:30N 49°58' W 124°48'4 8.5
2018-Jun-15 23:00N 50°01' W 124°53'3 5.8
2018-Jun-15 22:29N 50°00' W 124°57'3 5.3
2018-Jun-15 22:00N 50°00' W 125°01'3 6.5
2018-Jun-15 21:30N 50°02' W 125°05'3 6.3
2018-Jun-15 21:00N 49°59' W 125°04'2 3.4
2018-Jun-15 20:29N 49°58' W 125°07'1 3.0
2018-Jun-15 20:00N 49°58' W 125°09'4 7.3
2018-Jun-15 19:30N 49°55' W 125°06'4 8.1
2018-Jun-15 19:00N 49°52' W 125°02'2 3.4
2018-Jun-15 18:31N 49°53' W 125°00'0 0.6
2018-Jun-15 18:00N 49°53' W 124°60'0 0.2
2018-Jun-15 17:30N 49°53' W 124°60'1 1.5
2018-Jun-15 17:00N 49°53' W 124°59'3 5.8
2018-Jun-15 16:30N 49°55' W 124°55'4 8.5
2018-Jun-15 16:00N 49°52' W 124°51'5 9.6
2018-Jun-15 15:30N 49°48' W 124°47'5 9.7
2018-Jun-15 15:00N 49°44' W 124°42'1 2.0
2018-Jun-15 14:30N 49°44' W 124°41'0 0.3
2018-Jun-15 14:00N 49°44' W 124°41'0 0.5
2018-Jun-15 13:30N 49°44' W 124°41'2 4.4
2018-Jun-15 13:00N 49°42' W 124°44'0 0.5
2018-Jun-15 12:30N 49°42' W 124°43'3 6.0
2018-Jun-15 12:00N 49°41' W 124°47'4 7.1
2018-Jun-15 11:30N 49°38' W 124°43'4 7.8
2018-Jun-15 10:58N 49°36' W 124°38'1 2.2
2018-Jun-15 10:30N 49°36' W 124°37'4 6.5
2018-Jun-15 09:53N 49°39' W 124°33'2 6.6
2018-Jun-15 09:30N 49°38' W 124°30'5 9.6
2018-Jun-15 09:00N 49°34' W 124°24'3 3.6
2018-Jun-15 08:18N 49°32' W 124°26'2 6.1
2018-Jun-15 07:59N 49°31' W 124°28'1 2.8
2018-Jun-15 07:27N 49°29' W 124°29'2 4.8
2018-Jun-15 07:00N 49°27' W 124°31'0 0.1
2018-Jun-15 06:22N 49°28' W 124°31'6 3.7
2018-Jun-15 04:41N 49°25' W 124°22'11 4.6
2018-Jun-15 02:16N 49°22' W 124°05'3 9.3
2018-Jun-15 01:57N 49°24' W 124°09'6 2.3
2018-Jun-14 23:08N 49°30' W 124°06'29 3.9
2018-Jun-14 15:37N 49°09' W 123°36'2 6.1
2018-Jun-14 15:17N 49°10' W 123°33'0 0.2
2018-Jun-14 14:58N 49°10' W 123°33'1 3.0
2018-Jun-14 14:29N 49°10' W 123°31'3 6.8
2018-Jun-14 13:59N 49°12' W 123°26'0 0.0
2018-Jun-14 13:28N 49°12' W 123°26'0 0.3
2018-Jun-14 13:00N 49°12' W 123°26'4 7.2
2018-Jun-14 12:30N 49°14' W 123°22'2 3.5
2018-Jun-14 11:58N 49°12' W 123°20'5 9.8
2018-Jun-14 11:29N 49°07' W 123°21'4 7.6
2018-Jun-14 10:59N 49°04' W 123°19'2 3.4
2018-Jun-14 10:25N 49°03' W 123°22'0 0.2
2018-Jun-14 09:57N 49°03' W 123°22'2 4.8
2018-Jun-14 09:28N 49°02' W 123°25'1 0.9
2018-Jun-14 08:39N 49°02' W 123°26'0 0.7
2018-Jun-14 08:08N 49°01' W 123°27'4 3.4
2018-Jun-14 07:04N 48°59' W 123°23'1 9.7
2018-Jun-14 06:57N 48°59' W 123°21'2 4.7
2018-Jun-14 06:29N 48°58' W 123°18'4 8.0
2018-Jun-14 06:00N 49°01' W 123°14'2 3.3
2018-Jun-14 05:29N 48°60' W 123°12'5 9.0
2018-Jun-14 04:54N 48°56' W 123°07'4 7.2
2018-Jun-14 04:20N 48°52' W 123°09'1 3.1
2018-Jun-14 03:56N 48°51' W 123°11'0 0.2
2018-Jun-14 03:24N 48°51' W 123°11'3 6.9
2018-Jun-14 02:59N 48°54' W 123°08'3 6.6
2018-Jun-14 02:30N 48°57' W 123°06'3 6.9
2018-Jun-14 02:00N 48°56' W 123°01'2 1.5
2018-Jun-14 00:59N 48°55' W 122°60'4 5.6
2018-Jun-14 00:16N 48°52' W 123°03'2 5.2
2018-Jun-13 23:55N 48°50' W 123°05'6 4.1
2018-Jun-13 22:24N 48°44' W 123°08'4 8.7
2018-Jun-13 21:57N 48°43' W 123°14'0 0.6
2018-Jun-13 21:28N 48°43' W 123°14'  

Dump ship's entire track history